Anna II — SW7403 — position and weather

sailwx.info

Track history (hours):
 
Tides and Currents Weather Stations Pressure Air Temp Water Temp Dewpoint Dewpoint Depression Visibility Wind Speed Wind Dir Waves Ship Positions

Anna II

Last reported at 2018-Feb-17 08:28 UTC. Time now 2018-Feb-19 20:12 UTC.
Position N 37°30' E 023°27'.

Length 31 m; draft 2.5 m.

Type: Ship. MMSI: 237019100.

Date/timePositionNaut miles runAvg speedWind from/ knotsBaromVisibWave heightAir tempDewpointWater temp
2018-Feb-17 08:28N 37°30' E 023°27'5 9.4
2018-Feb-17 07:56N 37°35' E 023°25'510.9
2018-Feb-17 07:30N 37°40' E 023°25'510.8
2018-Feb-17 07:00N 37°45' E 023°25'5 9.4
2018-Feb-17 06:30N 37°48' E 023°29'5 9.8
2018-Feb-17 06:00N 37°52' E 023°33'5 9.6
2018-Feb-17 05:30N 37°57' E 023°35'1 2.0
2018-Feb-17 05:00N 37°58' E 023°34'0 0.0
2018-Feb-16 08:31N 37°58' E 023°34'0 0.3
2018-Feb-16 08:30N 37°58' E 023°34'0 0.3
2018-Feb-16 08:00N 37°57' E 023°34'0 0.1
2018-Feb-16 07:30N 37°57' E 023°34'0 0.3
2018-Feb-16 07:00N 37°57' E 023°35'0 0.3
2018-Feb-16 05:57N 37°58' E 023°34'0 0.0
2018-Feb-15 19:48N 37°58' E 023°34'0 0.0
2018-Feb-15 19:30N 37°58' E 023°34'0 0.0
2018-Feb-15 19:01N 37°58' E 023°34'0 0.0
2018-Feb-15 18:30N 37°58' E 023°34'0 0.0
2018-Feb-15 18:00N 37°58' E 023°34'0 0.0
2018-Feb-15 17:30N 37°58' E 023°34'  
2018-Feb-09 09:30N 37°58' E 023°34'3 5.1
2018-Feb-09 09:00N 37°55' E 023°35'5 9.3
2018-Feb-09 08:30N 37°51' E 023°32'  
Track history (hours):
 
Tides and Currents Weather Stations Pressure Air Temp Water Temp Dewpoint Dewpoint Depression Visibility Wind Speed Wind Dir Waves Ship Positions

Anna II

Last reported at 2018-Feb-17 08:28 UTC. Time now 2018-Feb-19 20:12 UTC.
Position N 37°30' E 023°27'.

Length 31 m; draft 2.5 m.

Type: Ship. MMSI: 237019100.

Date/timePositionNaut miles runAvg speedWind from/ knotsBaromVisibWave heightAir tempDewpointWater temp
2018-Feb-17 08:28N 37°30' E 023°27'5 9.4
2018-Feb-17 07:56N 37°35' E 023°25'510.9
2018-Feb-17 07:30N 37°40' E 023°25'510.8
2018-Feb-17 07:00N 37°45' E 023°25'5 9.4
2018-Feb-17 06:30N 37°48' E 023°29'5 9.8
2018-Feb-17 06:00N 37°52' E 023°33'5 9.6
2018-Feb-17 05:30N 37°57' E 023°35'1 2.0
2018-Feb-17 05:00N 37°58' E 023°34'0 0.0
2018-Feb-16 08:31N 37°58' E 023°34'0 0.3
2018-Feb-16 08:30N 37°58' E 023°34'0 0.3
2018-Feb-16 08:00N 37°57' E 023°34'0 0.1
2018-Feb-16 07:30N 37°57' E 023°34'0 0.3
2018-Feb-16 07:00N 37°57' E 023°35'0 0.3
2018-Feb-16 05:57N 37°58' E 023°34'0 0.0
2018-Feb-15 19:48N 37°58' E 023°34'0 0.0
2018-Feb-15 19:30N 37°58' E 023°34'0 0.0
2018-Feb-15 19:01N 37°58' E 023°34'0 0.0
2018-Feb-15 18:30N 37°58' E 023°34'0 0.0
2018-Feb-15 18:00N 37°58' E 023°34'0 0.0
2018-Feb-15 17:30N 37°58' E 023°34'  
2018-Feb-09 09:30N 37°58' E 023°34'3 5.1
2018-Feb-09 09:00N 37°55' E 023°35'5 9.3
2018-Feb-09 08:30N 37°51' E 023°32'  

Dump ship's entire track history